Time;durP1;ratioP1;P1;durP2;ratioP2;P2;SDS_P1;SDS_P2;PMS_P1;PMS_P2;Temp;Humidity;BMP_temperature;BMP_pressure;BME280_temperature;BME280_humidity;BME280_pressure;Samples;Min_cycle;Max_cycle;Signal;HPM_P1;HPM_P2
2023/03/27 00:00:15;;;;;;;8.87;3.40;;;2.60;90.30;;;;;;4919270;29;20235;-89
2023/03/27 00:02:42;;;;;;;7.57;2.57;;;2.60;99.90;;;;;;4919290;29;20191;-88
2023/03/27 00:05:10;;;;;;;8.50;2.67;;;2.50;99.90;;;;;;4919731;29;20200;-88
2023/03/27 00:07:40;;;;;;;6.60;2.80;;;2.50;99.90;;;;;;4919881;29;20202;-89
2023/03/27 00:10:09;;;;;;;7.23;2.77;;;2.50;99.90;;;;;;4919478;29;20252;-89
2023/03/27 00:12:37;;;;;;;5.20;2.90;;;2.50;99.90;;;;;;4919316;29;20197;-88
2023/03/27 00:15:06;;;;;;;7.03;3.00;;;2.40;99.90;;;;;;4919442;29;20231;-88
2023/03/27 00:17:32;;;;;;;5.20;2.53;;;2.40;99.90;;;;;;4919200;29;20211;-89
2023/03/27 00:19:59;;;;;;;6.37;2.70;;;2.40;99.90;;;;;;4919503;29;20203;-89
2023/03/27 00:22:28;;;;;;;7.03;2.40;;;2.40;99.90;;;;;;4919416;29;20589;-88
2023/03/27 00:24:56;;;;;;;4.73;2.23;;;2.30;99.90;;;;;;4919526;29;20211;-89
2023/03/27 00:27:24;;;;;;;7.60;2.67;;;2.30;99.90;;;;;;4919347;29;20199;-89
2023/03/27 00:29:52;;;;;;;3.77;2.27;;;2.30;99.90;;;;;;4919052;29;20210;-89
2023/03/27 00:32:19;;;;;;;2.77;1.77;;;2.30;99.90;;;;;;4919353;29;20197;-88
2023/03/27 00:34:46;;;;;;;4.67;2.70;;;2.30;99.90;;;;;;4919174;29;20205;-89
2023/03/27 00:37:13;;;;;;;5.80;1.97;;;2.30;99.90;;;;;;4919408;29;20203;-88
2023/03/27 00:39:41;;;;;;;2.33;1.93;;;2.30;99.90;;;;;;4918989;29;20221;-90
2023/03/27 00:42:11;;;;;;;3.17;1.60;;;2.20;99.90;;;;;;4919381;29;20255;-88
2023/03/27 00:44:41;;;;;;;5.13;2.83;;;2.20;99.90;;;;;;4918782;29;20230;-89
2023/03/27 00:47:11;;;;;;;4.20;2.00;;;2.30;99.90;;;;;;4918550;29;20724;-89
2023/03/27 00:49:39;;;;;;;2.60;1.77;;;2.30;99.90;;;;;;4918930;29;20277;-89
2023/03/27 00:52:07;;;;;;;3.20;2.10;;;2.30;99.90;;;;;;4900255;29;20292;-88
2023/03/27 00:54:38;;;;;;;3.60;2.10;;;2.30;99.90;;;;;;4915029;29;20202;-89
2023/03/27 00:57:09;;;;;;;4.63;1.83;;;2.40;99.90;;;;;;4918836;29;20204;-88
2023/03/27 00:59:41;;;;;;;5.10;2.27;;;2.40;99.90;;;;;;4918583;29;20240;-88
2023/03/27 01:02:09;;;;;;;3.20;2.30;;;2.50;91.70;;;;;;4918708;29;20701;-89
2023/03/27 01:04:38;;;;;;;3.67;2.00;;;2.60;5.50;;;;;;4899832;29;20291;-89
2023/03/27 01:07:07;;;;;;;4.23;2.30;;;2.60;1.00;;;;;;4900014;29;20666;-88
2023/03/27 01:09:34;;;;;;;5.07;2.23;;;2.70;1.00;;;;;;4915010;29;20707;-89
2023/03/27 01:12:15;;;;;;;2.17;1.47;;;2.70;1.00;;;;;;4918755;29;20293;-88
2023/03/27 01:14:51;;;;;;;3.97;1.83;;;2.70;1.00;;;;;;4918624;29;20185;-88
2023/03/27 01:17:32;;;;;;;3.93;2.33;;;2.70;1.00;;;;;;4917610;29;20571;-88
2023/03/27 01:20:50;;;;;;;5.10;2.03;;;2.70;1.00;;;;;;4906521;29;20227;-88
2023/03/27 01:23:47;;;;;;;3.90;2.00;;;2.70;1.00;;;;;;4787449;30;20212;-88
2023/03/27 01:26:56;;;;;;;3.60;1.63;;;2.70;1.00;;;;;;4787501;30;20199;-87
2023/03/27 01:29:34;;;;;;;3.67;1.80;;;2.70;1.00;;;;;;4787967;30;20254;-88
2023/03/27 01:32:31;;;;;;;5.20;1.70;;;2.80;1.00;;;;;;4787547;30;20209;-88
2023/03/27 01:35:31;;;;;;;1.67;1.30;;;2.80;1.00;;;;;;4769429;30;20716;-89
2023/03/27 01:38:36;;;;;;;4.83;1.83;;;2.80;1.00;;;;;;4766450;30;20206;-88
2023/03/27 01:41:10;;;;;;;1.90;1.17;;;2.90;99.90;;;;;;4758125;30;20371;-88
2023/03/27 01:43:43;;;;;;;2.83;1.50;;;2.90;99.90;;;;;;4757868;30;20206;-88
2023/03/27 01:46:17;;;;;;;1.80;1.20;;;2.90;1.00;;;;;;4761325;30;20205;-89
2023/03/27 01:48:49;;;;;;;1.90;1.23;;;2.90;1.00;;;;;;4751516;30;20283;-88
2023/03/27 01:51:20;;;;;;;3.90;1.17;;;3.00;1.00;;;;;;4753432;30;20271;-87
2023/03/27 01:53:51;;;;;;;3.27;1.50;;;3.00;1.00;;;;;;4793738;29;20208;-87
2023/03/27 01:56:25;;;;;;;2.13;1.00;;;3.00;1.00;;;;;;4826687;29;20663;-88
2023/03/27 01:58:57;;;;;;;2.50;1.00;;;3.00;1.00;;;;;;4834299;29;20203;-90
2023/03/27 02:01:31;;;;;;;5.43;1.20;;;2.90;99.90;;;;;;4871421;29;20225;-90
2023/03/27 02:04:01;;;;;;;1.47;0.80;;;2.90;99.90;;;;;;4878825;29;20213;-90
2023/03/27 02:06:34;;;;;;;5.40;1.23;;;2.80;99.90;;;;;;4881814;29;20256;-91
2023/03/27 02:09:05;;;;;;;2.60;1.10;;;2.80;99.90;;;;;;4878541;29;20200;-91
2023/03/27 02:11:40;;;;;;;1.30;1.00;;;2.80;99.90;;;;;;4888264;29;20258;-91
2023/03/27 02:14:12;;;;;;;2.83;1.10;;;2.70;99.90;;;;;;4917637;29;20208;-91
2023/03/27 02:16:44;;;;;;;2.03;1.00;;;2.80;99.90;;;;;;4898963;29;20252;-90
2023/03/27 02:19:18;;;;;;;2.00;1.20;;;2.80;99.90;;;;;;4914319;29;20292;-91
2023/03/27 02:21:46;;;;;;;1.40;1.03;;;2.90;43.80;;;;;;4918050;29;20216;-90
2023/03/27 02:24:14;;;;;;;2.07;1.30;;;2.90;1.00;;;;;;4917893;29;20205;-91
2023/03/27 02:26:43;;;;;;;1.70;1.20;;;2.90;1.00;;;;;;4919257;29;20200;-91
2023/03/27 02:29:41;;;;;;;2.20;1.40;;;2.90;1.00;;;;;;4921202;29;20209;-91
2023/03/27 02:32:21;;;;;;;5.07;1.10;;;2.90;1.00;;;;;;4921233;29;20279;-90
2023/03/27 02:35:02;;;;;;;2.20;1.10;;;3.00;1.00;;;;;;4921319;29;20248;-91
2023/03/27 02:37:38;;;;;;;0.93;0.80;;;3.00;1.00;;;;;;4920878;29;20235;-91
2023/03/27 02:40:13;;;;;;;4.07;1.20;;;3.00;1.00;;;;;;4921100;29;20639;-91
2023/03/27 02:42:57;;;;;;;2.77;1.10;;;2.90;1.00;;;;;;4907505;29;20206;-90
2023/03/27 02:45:30;;;;;;;2.90;1.03;;;2.90;1.00;;;;;;4920855;29;20566;-90
2023/03/27 02:48:03;;;;;;;4.53;1.17;;;3.00;1.00;;;;;;4914866;29;20681;-90
2023/03/27 02:50:35;;;;;;;1.90;1.40;;;2.90;1.00;;;;;;4916023;29;20233;-91
2023/03/27 02:53:04;;;;;;;1.83;1.20;;;3.00;1.00;;;;;;4920497;29;20731;-90
2023/03/27 02:55:35;;;;;;;110.53;48.80;;;2.90;1.00;;;;;;4920538;29;20227;-91
2023/03/27 02:58:06;;;;;;;28.30;13.33;;;3.00;1.00;;;;;;4937965;29;20187;-91
2023/03/27 03:00:39;;;;;;;5.83;3.03;;;3.00;1.00;;;;;;4922543;29;20219;-90
2023/03/27 03:03:11;;;;;;;7.90;3.83;;;3.00;1.00;;;;;;4929812;29;20211;-90
2023/03/27 03:05:38;;;;;;;2.80;2.37;;;3.10;1.00;;;;;;4926365;29;20202;-88
2023/03/27 03:08:08;;;;;;;7.03;2.27;;;3.10;1.00;;;;;;4908523;29;20251;-89
2023/03/27 03:10:36;;;;;;;4.73;2.40;;;3.10;1.00;;;;;;4937761;29;20240;-90
2023/03/27 03:13:04;;;;;;;8.13;3.43;;;3.10;1.00;;;;;;4920345;29;20210;-90
2023/03/27 03:15:31;;;;;;;6.07;3.37;;;3.00;1.00;;;;;;4932496;29;20282;-90
2023/03/27 03:17:58;;;;;;;5.50;2.50;;;3.00;1.00;;;;;;4924880;29;20253;-89
2023/03/27 03:20:28;;;;;;;3.70;2.50;;;3.00;1.00;;;;;;4920015;29;20207;-91
2023/03/27 03:22:56;;;;;;;4.70;2.10;;;3.00;1.00;;;;;;4919910;29;20457;-89
2023/03/27 03:25:24;;;;;;;2.67;1.43;;;3.00;1.00;;;;;;4919943;29;20284;-90
2023/03/27 03:27:56;;;;;;;2.30;1.80;;;3.00;1.00;;;;;;4919944;29;20198;-90
2023/03/27 03:30:26;;;;;;;2.83;2.17;;;3.00;1.00;;;;;;4931967;29;20200;-92
2023/03/27 03:32:53;;;;;;;3.30;1.70;;;3.10;1.00;;;;;;4939359;29;20225;-91
2023/03/27 03:35:21;;;;;;;1.37;1.13;;;3.10;1.00;;;;;;4939260;29;20286;-91
2023/03/27 03:37:49;;;;;;;1.47;1.07;;;3.10;1.00;;;;;;4934643;29;20653;-89
2023/03/27 03:40:17;;;;;;;1.47;1.07;;;3.10;1.00;;;;;;4920125;29;20219;-91
2023/03/27 03:42:48;;;;;;;2.13;1.20;;;3.10;99.90;;;;;;4919889;29;20693;-90
2023/03/27 03:45:15;;;;;;;1.23;1.03;;;3.10;99.90;;;;;;4920115;29;20658;-90
2023/03/27 03:47:44;;;;;;;1.50;1.10;;;3.10;99.90;;;;;;4919936;29;20246;-91
2023/03/27 03:50:12;;;;;;;2.20;1.10;;;3.10;1.00;;;;;;4920279;29;20204;-90
2023/03/27 03:52:39;;;;;;;1.90;1.10;;;3.10;99.90;;;;;;4901001;29;20197;-90
2023/03/27 03:55:08;;;;;;;2.37;1.30;;;3.10;99.90;;;;;;4901140;29;20566;-91
2023/03/27 03:57:35;;;;;;;1.57;1.30;;;3.10;99.90;;;;;;4931111;29;20254;-91
2023/03/27 04:00:05;;;;;;;2.07;1.20;;;3.10;99.90;;;;;;4923917;29;20282;-90
2023/03/27 04:02:33;;;;;;;2.67;1.40;;;3.10;99.90;;;;;;4920031;29;20298;-91
2023/03/27 04:05:03;;;;;;;5.87;2.00;;;3.10;99.90;;;;;;4919789;29;20250;-91
2023/03/27 04:07:30;;;;;;;2.63;1.47;;;3.10;99.90;;;;;;4919755;29;20206;-91
2023/03/27 04:09:58;;;;;;;4.73;2.10;;;3.10;99.90;;;;;;4922092;29;20713;-91
2023/03/27 04:12:26;;;;;;;3.40;1.97;;;3.00;99.90;;;;;;4919061;29;20288;-90
2023/03/27 04:14:53;;;;;;;2.57;1.50;;;3.00;99.90;;;;;;4926949;29;20288;-89
2023/03/27 04:17:20;;;;;;;6.23;1.53;;;3.00;99.90;;;;;;4929352;29;20568;-91
2023/03/27 04:19:47;;;;;;;5.10;1.60;;;3.00;1.00;;;;;;4918946;29;20211;-91
2023/03/27 04:22:16;;;;;;;3.20;1.20;;;3.00;1.00;;;;;;4919595;29;20251;-90
2023/03/27 04:24:43;;;;;;;6.23;1.30;;;3.00;1.00;;;;;;4900261;29;20576;-90
2023/03/27 04:27:11;;;;;;;2.90;1.30;;;3.00;1.00;;;;;;4899879;29;20669;-90
2023/03/27 04:29:42;;;;;;;2.00;1.60;;;3.00;1.00;;;;;;4916845;29;20198;-90
2023/03/27 04:32:09;;;;;;;3.03;1.30;;;2.90;1.00;;;;;;4918868;29;20197;-89
2023/03/27 04:34:39;;;;;;;2.27;1.17;;;3.00;1.00;;;;;;4918863;29;20211;-90
2023/03/27 04:37:06;;;;;;;3.70;1.73;;;3.00;1.00;;;;;;4919107;29;20205;-89
2023/03/27 04:39:41;;;;;;;3.20;1.83;;;3.00;1.00;;;;;;4918678;29;20245;-90
2023/03/27 04:42:09;;;;;;;5.67;2.13;;;3.00;1.00;;;;;;4918459;29;20272;-91
2023/03/27 04:44:36;;;;;;;4.10;2.17;;;3.00;1.00;;;;;;4918934;29;20234;-90
2023/03/27 04:47:05;;;;;;;3.47;1.87;;;3.00;1.00;;;;;;4918695;29;20212;-90
2023/03/27 04:49:37;;;;;;;3.47;2.17;;;3.00;1.00;;;;;;4918445;29;20209;-90
2023/03/27 04:52:05;;;;;;;3.40;1.77;;;3.00;1.00;;;;;;4918647;29;20192;-90
2023/03/27 04:54:34;;;;;;;2.77;1.67;;;3.00;1.00;;;;;;4908134;29;20203;-90
2023/03/27 04:57:02;;;;;;;3.63;1.43;;;3.10;1.00;;;;;;4899189;29;20205;-90
2023/03/27 04:59:30;;;;;;;1.70;1.27;;;3.00;1.00;;;;;;4909004;29;20203;-90
2023/03/27 05:01:57;;;;;;;2.90;1.30;;;3.00;1.00;;;;;;4916435;29;20202;-89
2023/03/27 05:04:25;;;;;;;2.87;1.77;;;3.10;1.00;;;;;;4899448;29;20207;-91
2023/03/27 05:06:53;;;;;;;3.80;1.40;;;3.10;1.00;;;;;;4899579;29;20208;-91
2023/03/27 05:09:20;;;;;;;4.97;1.87;;;3.10;1.00;;;;;;4899391;29;20731;-91
2023/03/27 05:11:49;;;;;;;3.17;1.70;;;3.10;1.00;;;;;;4911410;29;20205;-89
2023/03/27 05:14:16;;;;;;;6.40;2.97;;;3.10;1.00;;;;;;4918584;29;20259;-91
2023/03/27 05:16:43;;;;;;;2.80;1.63;;;3.10;1.00;;;;;;4918724;29;20207;-91
2023/03/27 05:19:11;;;;;;;2.30;1.60;;;3.10;1.00;;;;;;4918120;29;20251;-91
2023/03/27 05:21:38;;;;;;;3.10;1.80;;;3.10;1.00;;;;;;4917218;29;20195;-90
2023/03/27 05:24:06;;;;;;;3.20;1.93;;;3.10;1.00;;;;;;4917395;29;20336;-89
2023/03/27 05:26:34;;;;;;;2.43;1.30;;;3.10;1.00;;;;;;4917760;29;20226;-90
2023/03/27 05:29:04;;;;;;;1.73;1.40;;;3.00;1.00;;;;;;4917465;29;20252;-89
2023/03/27 05:31:32;;;;;;;4.83;1.90;;;3.00;1.00;;;;;;4917039;29;20290;-90
2023/03/27 05:33:59;;;;;;;3.83;1.80;;;3.10;1.00;;;;;;4917663;29;20229;-89
2023/03/27 05:36:28;;;;;;;1.90;1.20;;;3.10;1.00;;;;;;4917512;29;20216;-89
2023/03/27 05:38:56;;;;;;;3.63;2.03;;;3.10;1.00;;;;;;4917512;29;20205;-90
2023/03/27 05:41:23;;;;;;;2.30;1.40;;;3.10;1.00;;;;;;4916999;29;20240;-90
2023/03/27 05:43:51;;;;;;;1.97;1.37;;;3.20;1.00;;;;;;4917476;29;20217;-90
2023/03/27 05:46:20;;;;;;;3.43;1.40;;;3.20;1.00;;;;;;4917376;29;20198;-89
2023/03/27 05:48:47;;;;;;;2.10;1.10;;;3.20;1.00;;;;;;4905540;29;20657;-90
2023/03/27 05:51:13;;;;;;;1.43;1.00;;;3.20;1.00;;;;;;4898605;29;20339;-90
2023/03/27 05:53:41;;;;;;;2.87;1.10;;;3.20;1.00;;;;;;4909258;29;20197;-90
2023/03/27 05:56:09;;;;;;;1.20;0.90;;;3.30;1.00;;;;;;4917074;29;20201;-89
2023/03/27 05:58:36;;;;;;;1.50;1.17;;;3.30;1.00;;;;;;4917112;29;20195;-91
2023/03/27 06:01:03;;;;;;;2.03;0.90;;;3.30;1.00;;;;;;4917482;29;20200;-90
2023/03/27 06:03:34;;;;;;;1.23;0.90;;;3.30;1.00;;;;;;4921056;29;20219;-90
2023/03/27 06:06:05;;;;;;;2.57;1.20;;;3.40;1.00;;;;;;4921135;29;20205;-90
2023/03/27 06:08:33;;;;;;;1.83;1.13;;;3.40;1.00;;;;;;4920762;29;20201;-90
2023/03/27 06:11:00;;;;;;;1.30;0.97;;;3.40;1.00;;;;;;4920860;29;20284;-89
2023/03/27 06:13:27;;;;;;;1.50;1.20;;;3.40;1.00;;;;;;4921149;29;20200;-90
2023/03/27 06:15:54;;;;;;;3.33;1.37;;;3.50;1.00;;;;;;4921146;29;20237;-89
2023/03/27 06:18:21;;;;;;;2.17;1.30;;;3.50;1.00;;;;;;4923936;29;20201;-90
2023/03/27 06:20:50;;;;;;;1.67;1.10;;;3.50;1.00;;;;;;4912577;29;20253;-90
2023/03/27 06:23:17;;;;;;;3.87;1.80;;;3.60;1.00;;;;;;4905368;29;20216;-89
2023/03/27 06:25:46;;;;;;;2.13;1.60;;;3.70;1.00;;;;;;4920438;29;20822;-90
2023/03/27 06:28:13;;;;;;;2.60;1.70;;;3.80;1.00;;;;;;4901823;29;20583;-89
2023/03/27 06:30:41;;;;;;;2.63;1.60;;;3.90;1.00;;;;;;4919974;29;20252;-89
2023/03/27 06:33:07;;;;;;;2.70;1.33;;;4.10;1.00;;;;;;4930076;29;20196;-89
2023/03/27 06:35:35;;;;;;;1.43;1.10;;;4.20;1.00;;;;;;4937862;29;20256;-89
2023/03/27 06:38:03;;;;;;;1.70;0.97;;;4.40;1.00;;;;;;4933902;29;20197;-90
2023/03/27 06:40:34;;;;;;;2.13;1.00;;;4.40;1.00;;;;;;4920297;29;20260;-89
2023/03/27 06:43:02;;;;;;;4.37;1.57;;;4.40;1.00;;;;;;4919902;29;20224;-90
2023/03/27 06:45:31;;;;;;;1.83;1.23;;;4.40;1.00;;;;;;4923147;29;20206;-89
2023/03/27 06:48:01;;;;;;;5.70;1.13;;;4.40;1.00;;;;;;4928473;29;20225;-89
2023/03/27 06:50:30;;;;;;;3.57;1.07;;;4.50;1.00;;;;;;4931489;29;20216;-89
2023/03/27 06:52:58;;;;;;;3.67;1.20;;;4.60;1.00;;;;;;4919471;29;20197;-89
2023/03/27 06:55:27;;;;;;;2.27;1.37;;;4.80;1.00;;;;;;4919663;29;20232;-88
2023/03/27 06:57:56;;;;;;;2.53;1.60;;;4.90;1.00;;;;;;4919961;29;20264;-88
2023/03/27 07:00:25;;;;;;;3.57;1.43;;;4.80;1.00;;;;;;4931282;29;20577;-89
2023/03/27 07:02:55;;;;;;;3.97;2.17;;;4.70;1.00;;;;;;4927307;29;20281;-88
2023/03/27 07:05:22;;;;;;;2.27;1.50;;;4.70;1.00;;;;;;4919642;29;20210;-89
2023/03/27 07:07:50;;;;;;;3.57;2.00;;;4.70;1.00;;;;;;4919620;29;20257;-89
2023/03/27 07:10:17;;;;;;;6.40;1.60;;;4.70;1.00;;;;;;4919355;29;20225;-88
2023/03/27 07:12:47;;;;;;;5.03;1.90;;;4.90;1.00;;;;;;4907724;29;20259;-89
2023/03/27 07:15:15;;;;;;;5.73;2.40;;;5.10;1.00;;;;;;4915543;29;20201;-88
2023/03/27 07:17:43;;;;;;;6.23;3.60;;;5.30;1.00;;;;;;4919014;29;20201;-87
2023/03/27 07:20:12;;;;;;;19.97;12.43;;;5.50;1.00;;;;;;4918907;29;20756;-86
2023/03/27 07:22:41;;;;;;;10.60;7.37;;;5.60;1.00;;;;;;4919013;29;20198;-86
2023/03/27 07:25:10;;;;;;;12.20;9.13;;;5.70;1.00;;;;;;4936954;29;20205;-86
2023/03/27 07:27:37;;;;;;;2.87;2.03;;;5.70;1.00;;;;;;4920580;29;20273;-86
2023/03/27 07:30:07;;;;;;;4.60;2.00;;;5.60;1.00;;;;;;4922268;29;20205;-86
2023/03/27 07:32:35;;;;;;;6.10;3.47;;;5.40;1.00;;;;;;4922042;29;20688;-86
2023/03/27 07:35:04;;;;;;;4.63;2.33;;;5.30;1.00;;;;;;4918706;29;20288;-87
2023/03/27 07:37:31;;;;;;;4.07;2.33;;;5.20;1.00;;;;;;4918612;29;20752;-86
2023/03/27 07:39:58;;;;;;;2.77;2.23;;;5.20;1.00;;;;;;4914920;29;20328;-87
2023/03/27 07:42:25;;;;;;;7.27;4.67;;;5.30;1.00;;;;;;4918634;29;20666;-87
2023/03/27 07:44:51;;;;;;;5.80;3.97;;;5.30;1.00;;;;;;4918669;29;20245;-86
2023/03/27 07:47:20;;;;;;;9.70;5.37;;;5.30;1.00;;;;;;4918401;29;20261;-86
2023/03/27 07:49:47;;;;;;;42.60;21.53;;;5.30;1.00;;;;;;4903823;29;20198;-87
2023/03/27 07:52:14;;;;;;;43.93;19.73;;;5.30;1.00;;;;;;4903814;29;20277;-86
2023/03/27 07:54:41;;;;;;;66.13;32.67;;;5.30;1.00;;;;;;4918378;29;20246;-86
2023/03/27 07:57:09;;;;;;;25.83;15.20;;;5.40;1.00;;;;;;4918078;29;20200;-86
2023/03/27 07:59:36;;;;;;;17.23;9.67;;;5.50;1.00;;;;;;4918420;29;20208;-86
2023/03/27 08:02:03;;;;;;;104.07;52.63;;;5.50;1.00;;;;;;4919512;29;20199;-86
2023/03/27 08:04:31;;;;;;;43.50;24.23;;;5.40;1.00;;;;;;4920086;29;20215;-86
2023/03/27 08:06:59;;;;;;;54.87;26.23;;;5.20;1.00;;;;;;4918369;29;20199;-86
2023/03/27 08:09:26;;;;;;;68.90;30.07;;;5.20;1.00;;;;;;4918197;29;20237;-87
2023/03/27 08:11:53;;;;;;;28.33;16.03;;;5.10;1.00;;;;;;4926246;29;20578;-86
2023/03/27 08:14:20;;;;;;;13.87;7.90;;;5.00;1.00;;;;;;4929316;29;20229;-86
2023/03/27 08:16:47;;;;;;;14.57;7.67;;;4.90;1.00;;;;;;4918135;29;20204;-86
2023/03/27 08:19:14;;;;;;;5.33;3.27;;;4.70;1.00;;;;;;4921737;29;20193;-87
2023/03/27 08:21:45;;;;;;;7.07;3.90;;;4.50;1.00;;;;;;4932718;29;20207;-87
2023/03/27 08:24:12;;;;;;;25.20;12.10;;;4.40;1.00;;;;;;4921693;29;20646;-87
2023/03/27 08:26:40;;;;;;;16.43;8.60;;;4.40;99.90;;;;;;4918607;29;20556;-88
2023/03/27 08:29:07;;;;;;;9.77;4.37;;;4.40;99.90;;;;;;4920306;29;20201;-86
2023/03/27 08:31:34;;;;;;;27.37;11.97;;;4.40;99.90;;;;;;4937871;29;20208;-88
2023/03/27 08:34:01;;;;;;;24.53;11.80;;;4.50;99.90;;;;;;4924189;29;20189;-88
2023/03/27 08:36:30;;;;;;;15.83;7.97;;;4.60;99.90;;;;;;4918570;29;20266;-88
2023/03/27 08:39:01;;;;;;;23.17;11.30;;;4.70;99.90;;;;;;4918272;29;20205;-87
2023/03/27 08:41:31;;;;;;;12.23;6.83;;;4.80;99.90;;;;;;4918297;29;20244;-88
2023/03/27 08:44:02;;;;;;;7.37;4.80;;;4.80;99.90;;;;;;4919074;29;20261;-88
2023/03/27 08:46:34;;;;;;;19.13;11.17;;;5.00;99.90;;;;;;4935598;29;20216;-87
2023/03/27 08:49:08;;;;;;;4.20;3.00;;;5.30;99.90;;;;;;4916655;29;20685;-87
2023/03/27 08:51:41;;;;;;;8.03;3.70;;;5.50;99.90;;;;;;4918151;29;20194;-87
2023/03/27 08:54:16;;;;;;;2.63;1.70;;;5.80;1.00;;;;;;4911700;29;20192;-88
2023/03/27 08:56:44;;;;;;;3.97;2.17;;;6.00;1.00;;;;;;4910005;29;20206;-87
2023/03/27 08:59:14;;;;;;;5.13;2.93;;;6.00;1.00;;;;;;4917660;29;20214;-87
2023/03/27 09:01:48;;;;;;;3.07;2.23;;;6.00;1.00;;;;;;4918174;29;20255;-88
2023/03/27 09:04:26;;;;;;;3.13;1.80;;;6.00;1.00;;;;;;4917679;29;20247;-87
2023/03/27 09:07:00;;;;;;;3.47;1.23;;;6.10;1.00;;;;;;4915267;29;20194;-86
2023/03/27 09:09:51;;;;;;;3.47;1.60;;;6.00;1.00;;;;;;4917276;29;20230;-86
2023/03/27 09:12:31;;;;;;;3.87;2.30;;;5.90;1.00;;;;;;4910252;29;20218;-87
2023/03/27 09:15:03;;;;;;;3.07;1.87;;;5.80;1.00;;;;;;4911607;29;20259;-88
2023/03/27 09:17:34;;;;;;;2.43;1.50;;;5.90;1.00;;;;;;4917253;29;20206;-88
2023/03/27 09:20:06;;;;;;;5.97;3.27;;;5.80;1.00;;;;;;4917615;29;20208;-87
2023/03/27 09:22:42;;;;;;;3.70;2.33;;;5.80;1.00;;;;;;4917895;29;20201;-87
2023/03/27 09:25:19;;;;;;;9.77;3.93;;;5.80;1.00;;;;;;4917407;29;20217;-88
2023/03/27 09:27:49;;;;;;;2.23;1.40;;;5.90;1.00;;;;;;4916024;29;20195;-88
2023/03/27 09:30:22;;;;;;;2.00;1.47;;;6.10;1.00;;;;;;4917900;29;20289;-87
2023/03/27 09:32:53;;;;;;;1.30;1.00;;;6.10;1.00;;;;;;4917869;29;20188;-87
2023/03/27 09:35:21;;;;;;;3.87;1.10;;;5.90;1.00;;;;;;4917687;29;20328;-88
2023/03/27 09:37:52;;;;;;;2.90;0.80;;;5.90;1.00;;;;;;4917709;29;20228;-87
2023/03/27 09:40:24;;;;;;;2.53;1.30;;;5.90;1.00;;;;;;4917790;29;20637;-87
2023/03/27 09:42:54;;;;;;;2.60;0.90;;;5.90;1.00;;;;;;4899126;29;20181;-88
2023/03/27 09:45:21;;;;;;;2.00;1.10;;;6.00;1.00;;;;;;4925886;29;20220;-90
2023/03/27 09:47:58;;;;;;;3.63;2.60;;;6.00;1.00;;;;;;4926867;29;20203;-88
2023/03/27 09:50:30;;;;;;;4.33;1.20;;;6.10;1.00;;;;;;4917431;29;20675;-87
2023/03/27 09:53:11;;;;;;;3.33;1.50;;;6.30;1.00;;;;;;4917656;29;20316;-88
2023/03/27 09:55:51;;;;;;;3.20;1.30;;;6.10;1.00;;;;;;4918062;29;20745;-87
2023/03/27 09:58:35;;;;;;;1.87;1.27;;;6.00;1.00;;;;;;4917203;29;20651;-87
2023/03/27 10:01:15;;;;;;;4.90;1.23;;;6.10;1.00;;;;;;4915555;29;20251;-88
2023/03/27 10:03:51;;;;;;;1.80;1.20;;;5.90;1.00;;;;;;4920553;29;20308;-87
2023/03/27 10:06:26;;;;;;;2.40;1.30;;;5.60;1.00;;;;;;4903021;29;20293;-87
2023/03/27 10:08:54;;;;;;;6.07;2.97;;;5.30;1.00;;;;;;4916869;29;20193;-89
2023/03/27 10:11:26;;;;;;;11.63;4.67;;;5.30;1.00;;;;;;4932578;29;20202;-89
2023/03/27 10:13:54;;;;;;;4.40;2.10;;;5.30;1.00;;;;;;4917501;29;20197;-89
2023/03/27 10:16:22;;;;;;;4.97;2.23;;;5.30;1.00;;;;;;4935790;29;20201;-88
2023/03/27 10:18:53;;;;;;;3.83;1.57;;;5.20;1.00;;;;;;4917694;29;20205;-87
2023/03/27 10:21:26;;;;;;;1.50;1.30;;;5.30;1.00;;;;;;4917598;29;20220;-89
2023/03/27 10:24:01;;;;;;;5.77;2.10;;;5.40;1.00;;;;;;4921396;29;20683;-88
2023/03/27 10:26:32;;;;;;;5.77;2.30;;;5.60;1.00;;;;;;4917574;29;20216;-88
2023/03/27 10:29:05;;;;;;;2.13;1.73;;;5.60;1.00;;;;;;4917404;29;20303;-87
2023/03/27 10:31:34;;;;;;;2.33;1.60;;;5.50;1.00;;;;;;4917369;29;20288;-88
2023/03/27 10:34:03;;;;;;;2.00;1.50;;;5.50;1.00;;;;;;4917282;29;20609;-88
2023/03/27 10:36:33;;;;;;;4.07;2.30;;;5.80;1.00;;;;;;4907899;29;20199;-87
2023/03/27 10:39:04;;;;;;;2.40;1.57;;;6.30;1.00;;;;;;4911329;29;20209;-88
2023/03/27 10:41:35;;;;;;;2.53;1.30;;;6.50;1.00;;;;;;4917329;29;20211;-88
2023/03/27 10:44:06;;;;;;;2.77;1.80;;;6.10;1.00;;;;;;4917268;29;20596;-87
2023/03/27 10:46:39;;;;;;;4.60;1.40;;;5.40;1.00;;;;;;4917345;29;20193;-88
2023/03/27 10:49:16;;;;;;;3.47;2.20;;;5.00;1.00;;;;;;4901745;29;20251;-87
2023/03/27 10:51:49;;;;;;;2.90;1.63;;;4.80;1.00;;;;;;4920100;29;20261;-87
2023/03/27 10:54:26;;;;;;;1.80;1.33;;;4.60;1.00;;;;;;4931039;29;20256;-86
2023/03/27 10:57:02;;;;;;;3.17;1.97;;;4.50;1.00;;;;;;4926793;29;20205;-86
2023/03/27 10:59:33;;;;;;;2.30;1.57;;;4.50;1.00;;;;;;4924674;29;20551;-87
2023/03/27 11:02:04;;;;;;;2.80;1.90;;;4.90;99.90;;;;;;4939425;29;20196;-87
2023/03/27 11:04:42;;;;;;;3.83;2.17;;;5.50;1.00;;;;;;4938045;29;20280;-87
2023/03/27 11:07:17;;;;;;;1.70;1.50;;;6.00;1.00;;;;;;4915294;29;20206;-87
2023/03/27 11:09:56;;;;;;;2.10;1.30;;;6.20;1.00;;;;;;4919852;29;20238;-87
2023/03/27 11:12:27;;;;;;;1.83;1.23;;;6.30;1.00;;;;;;4931802;29;20205;-88
2023/03/27 11:14:59;;;;;;;4.23;1.30;;;6.10;1.00;;;;;;4932484;29;20804;-87
2023/03/27 11:17:32;;;;;;;1.63;1.00;;;5.90;99.90;;;;;;4919954;29;20664;-87
2023/03/27 11:20:07;;;;;;;2.13;1.57;;;5.80;99.90;;;;;;4919733;29;20688;-86
2023/03/27 11:22:39;;;;;;;1.70;1.20;;;5.80;99.90;;;;;;4919842;29;20238;-86
2023/03/27 11:25:14;;;;;;;2.60;1.20;;;6.10;99.90;;;;;;4919545;29;20720;-88
2023/03/27 11:27:49;;;;;;;2.30;1.23;;;6.30;99.90;;;;;;4919412;29;20202;-88
2023/03/27 11:30:34;;;;;;;1.63;1.10;;;6.60;99.90;;;;;;4919664;29;20198;-87
2023/03/27 11:33:40;;;;;;;3.43;1.53;;;6.60;99.90;;;;;;4918215;29;20202;-88
2023/03/27 11:36:29;;;;;;;1.43;0.93;;;6.40;99.90;;;;;;4894959;29;20203;-88
2023/03/27 11:39:07;;;;;;;2.30;1.20;;;6.10;99.90;;;;;;4912560;29;20203;-87
2023/03/27 11:41:34;;;;;;;1.00;0.80;;;6.00;99.90;;;;;;4919456;29;20206;-87
2023/03/27 11:44:02;;;;;;;3.87;1.20;;;6.00;99.90;;;;;;4918928;29;20200;-87
2023/03/27 11:46:55;;;;;;;5.30;1.40;;;6.10;99.90;;;;;;4919831;29;20613;-87
2023/03/27 11:49:50;;;;;;;1.47;0.93;;;6.10;99.90;;;;;;4900779;29;20632;-87
2023/03/27 11:52:30;;;;;;;1.80;0.70;;;5.90;99.90;;;;;;4914806;29;20198;-87
2023/03/27 11:55:08;;;;;;;2.93;1.13;;;5.90;99.90;;;;;;4916273;29;20196;-87
2023/03/27 11:57:47;;;;;;;1.60;1.00;;;5.80;99.90;;;;;;4918621;29;20202;-87
2023/03/27 12:00:24;;;;;;;6.27;1.07;;;5.80;99.90;;;;;;4917529;29;20669;-87
2023/03/27 12:03:18;;;;;;;1.30;0.77;;;5.90;99.90;;;;;;4926454;29;20206;-87
2023/03/27 12:06:01;;;;;;;5.47;0.83;;;5.80;99.90;;;;;;4927527;29;20247;-88
2023/03/27 12:08:39;;;;;;;1.87;0.97;;;5.80;99.90;;;;;;4913702;29;20209;-87
2023/03/27 12:11:10;;;;;;;3.47;1.43;;;5.70;99.90;;;;;;4933527;29;20233;-88
2023/03/27 12:14:16;;;;;;;1.50;0.80;;;5.70;99.90;;;;;;4919044;29;20224;-87
2023/03/27 12:17:08;;;;;;;1.63;0.70;;;5.60;99.90;;;;;;4918864;29;20204;-87
2023/03/27 12:19:50;;;;;;;1.40;0.67;;;5.60;99.90;;;;;;4918991;29;20182;-87
2023/03/27 12:22:26;;;;;;;1.57;0.90;;;5.70;99.90;;;;;;4918977;29;20197;-88
2023/03/27 12:25:08;;;;;;;1.07;0.80;;;5.60;99.90;;;;;;4900004;29;20227;-87
2023/03/27 12:27:50;;;;;;;1.10;0.60;;;5.70;99.90;;;;;;4907667;29;20559;-87
2023/03/27 12:30:26;;;;;;;0.63;0.50;;;5.80;99.90;;;;;;4925582;29;20247;-88
2023/03/27 12:33:23;;;;;;;1.07;0.77;;;5.80;99.90;;;;;;4929396;29;20202;-88
2023/03/27 12:35:56;;;;;;;3.23;1.37;;;5.90;99.90;;;;;;4918157;29;20203;-87
2023/03/27 12:38:28;;;;;;;0.97;0.60;;;5.90;99.90;;;;;;4918026;29;20329;-87
2023/03/27 12:41:12;;;;;;;1.13;0.80;;;5.90;99.90;;;;;;4903531;29;20671;-87
2023/03/27 12:43:44;;;;;;;5.90;0.83;;;5.90;99.90;;;;;;4918040;29;20242;-87
2023/03/27 12:46:20;;;;;;;0.93;0.80;;;5.90;99.90;;;;;;4899656;29;20262;-87
2023/03/27 12:48:54;;;;;;;0.70;0.70;;;6.00;99.90;;;;;;4917898;29;20275;-87
2023/03/27 12:51:37;;;;;;;1.90;0.90;;;6.00;99.90;;;;;;4917956;29;20230;-87
2023/03/27 12:54:22;;;;;;;1.27;0.80;;;6.10;99.90;;;;;;4913184;29;20200;-87
2023/03/27 12:56:50;;;;;;;1.57;0.80;;;6.20;99.90;;;;;;4910380;29;20202;-87
2023/03/27 12:59:23;;;;;;;1.33;0.77;;;6.30;99.90;;;;;;4917896;29;20198;-87
2023/03/27 13:02:17;;;;;;;1.03;0.70;;;6.30;99.90;;;;;;4917872;29;20199;-87
2023/03/27 13:05:11;;;;;;;1.83;0.60;;;6.40;99.90;;;;;;4930490;29;20231;-87
2023/03/27 13:07:47;;;;;;;1.00;0.60;;;6.30;99.90;;;;;;4911352;29;20670;-87
2023/03/27 13:10:34;;;;;;;1.10;0.60;;;6.40;99.90;;;;;;4917468;29;20231;-87
2023/03/27 13:13:23;;;;;;;3.87;0.87;;;6.50;99.90;;;;;;4917756;29;20202;-87
2023/03/27 13:16:05;;;;;;;3.93;1.00;;;6.30;99.90;;;;;;4920235;29;20196;-88
2023/03/27 13:18:50;;;;;;;2.37;0.80;;;6.20;99.90;;;;;;4908710;29;20222;-87
2023/03/27 13:21:28;;;;;;;0.93;0.60;;;6.20;99.90;;;;;;4915642;29;20262;-87
2023/03/27 13:24:15;;;;;;;0.70;0.60;;;6.30;99.90;;;;;;4917139;29;20232;-87
2023/03/27 13:27:03;;;;;;;1.30;0.70;;;6.30;99.90;;;;;;4917349;29;20208;-87
2023/03/27 13:29:32;;;;;;;0.60;0.57;;;6.30;99.90;;;;;;4917034;29;20210;-87